Gakona, AK

8:30 AM AKDT on July 10, 2014 (GMT -0800)
Copper Bluff Subdivision (KAKGAKON2) Elev 1625 ft | 62.29 °N, 145.34 °W | Change Station

Current weather conditions updated 14 minutes ago

Overcast
Overcast
53.6 °F
Feels Like 53.6 °F
N
0.0
Wind Variable Wind from SE
Gusts 0.0 mph

Today is forecast to be Much Cooler than yesterday. Showers possible.

Today
High -- | Low -- °F
--% Chance of Precip.
Yesterday
High -- | Low -- °F
Precip. -- in
4:10 AM 11:21 PM
Waxing Gibbous, 95% visible
Pressure 29.93 in
Visibility 10.0 miles
Clouds Mostly Cloudy 8000 ft
Overcast 9500 ft
Dew Point 49 °F
Humidity 85%
Rainfall 0.00 in
Snow Depth Not available.
UV 0.0 out of 12
Pollen Not available.
Air Quality Not available.
Flu Activity Sporadic
METAR PAGK 101553Z AUTO 12004KT 10SM BKN080 OVC095 12/09 A2993 RMK AO2 RAB30E48 SLP135 P0000 T01170089 TSNO

More Conditions Fewer Conditions

Pressure 29.93 in
Visibility 10.0 miles
Clouds Mostly Cloudy 8000 ft
Overcast 9500 ft
Dew Point 49 °F
Humidity 85%
Rainfall 0.00 in
Snow Depth Not available.
UV 0.0 out of 12
Pollen Not available.
Air Quality Not available.
Flu Activity Sporadic
METAR PAGK 101553Z AUTO 12004KT 10SM BKN080 OVC095 12/09 A2993 RMK AO2 RAB30E48 SLP135 P0000 T01170089 TSNO

More Conditions Fewer Conditions

10-Day Weather Forecast

Almanac

Astronomy

Jul. 10, 2014 Rise Set
Actual Time 4:10 AM AKDT 11:21 PM AKDT
Civil Twilight 2:19 AM AKDT 1:14 AM AKDT
Nautical Twilight Sun does not rise Sun does not rise
Astronomical Twilight Sun does not rise Sun does not rise
Moon 9:14 PM AKDT 3:00 AM AKDT
Length of Visible Light 22h 55m
Length of Day
19h 11m
Tomorrow will be 4m 3s shorter.
Waxing Gibbous, 95% of the Moon is Illuminated
Today
Waxing Gibbous
Jul 12
Full
Jul 18
Last Quarter
Jul 26
New
Aug 3
First Quarter

Today's Extremes

State Highs State Lows

Community

WunderPhotos

Upload Photos

1,732,184 photos uploaded!

Nearby

Snow Depth

Station Depth Elevation
Upper Tsaina River 0 in 1750 ft
Granite Creek 0 in 1240 ft
Moraine 0 in 2100 ft
Susitna Valley High 109 in 375 ft
Indian Pass 2 in 2300 ft

Earthquake Activity

City Distance Mag. Time & Date
No recent earthquake activity has been reported nearby.
Minimum magnitude displayed is 2.5.

Coastal Water Temperatures

Place Temperature
No Stations Reporting

Nearby Weather Stations

Station Location Temp. Windchill Dew Point Humidity Wind Precip. Elev Updated Type
Copper Bluff Subdivision, Gakona, AK 53.6 °F - 49 °F 85% SE  at  0.0 mph 0.00 in / hr 1625 ft 8:16 AM AKDT Normal
AKDOT Glenn Highway @ MP 176.6, Glennallen, AK 50 °F 48 °F 47 °F 87% East  at  6 mph 0.00 in / hr 2112 ft 7:55 AM AKDT MADIS
Klutina River, Copper Center, AK 54.0 °F - 51 °F 90% SSE  at  3.0 mph 0.00 in / hr 1100 ft 8:30 AM AKDT Rapid Fire
RAWS KLAWASI AK, Gakona, AK 49 °F 49 °F 43 °F 80% NNE  at  2 mph 0.00 in / hr 3100 ft 7:56 AM AKDT MADIS

Show More Stations Show Fewer Stations